Time;durP1;ratioP1;P1;durP2;ratioP2;P2;SDS_P1;SDS_P2;PMS_P1;PMS_P2;Temp;Humidity;BMP_temperature;BMP_pressure;BME280_temperature;BME280_humidity;BME280_pressure;Samples;Min_cycle;Max_cycle;Signal;HPM_P1;HPM_P2
2022/08/09 00:01:49;;;;;;;1.05;0.80;;;;;;;32.48;24.88;98896.75;5078971;28;20037;-80
2022/08/09 00:04:19;;;;;;;1.15;0.63;;;;;;;32.57;24.08;98899.63;5079844;28;20052;-80
2022/08/09 00:06:46;;;;;;;2.83;0.70;;;;;;;32.72;24.55;98894.91;5084933;28;20387;-80
2022/08/09 00:09:13;;;;;;;1.08;0.63;;;;;;;32.57;24.27;98900.44;5086173;28;20035;-80
2022/08/09 00:11:39;;;;;;;2.08;0.73;;;;;;;32.67;24.69;98899.16;5083901;28;20048;-80
2022/08/09 00:14:06;;;;;;;0.73;0.68;;;;;;;32.44;24.86;98896.13;5087348;28;20036;-80
2022/08/09 00:16:32;;;;;;;1.10;0.70;;;;;;;32.11;24.93;98903.63;5085335;28;20040;-80
2022/08/09 00:18:58;;;;;;;1.15;0.57;;;;;;;32.13;25.04;98899.06;5083570;28;20388;-80
2022/08/09 00:21:24;;;;;;;1.05;0.50;;;;;;;32.44;24.57;98894.03;5081350;28;20048;-80
2022/08/09 00:23:50;;;;;;;1.33;0.70;;;;;;;32.56;24.55;98900.88;5082799;28;20039;-80
2022/08/09 00:26:17;;;;;;;1.40;0.70;;;;;;;32.71;24.47;98899.00;5080634;28;20032;-80
2022/08/09 00:28:43;;;;;;;3.50;0.70;;;;;;;32.79;23.93;98893.78;5082859;28;20387;-80
2022/08/09 00:31:09;;;;;;;1.15;0.60;;;;;;;32.85;23.70;98894.72;5081380;28;20396;-80
2022/08/09 00:33:35;;;;;;;0.63;0.50;;;;;;;32.69;24.37;98901.53;5076612;28;20103;-80
2022/08/09 00:36:02;;;;;;;1.75;0.70;;;;;;;32.74;24.46;98898.06;5081536;28;20085;-80
2022/08/09 00:38:28;;;;;;;1.50;0.60;;;;;;;32.75;24.21;98894.72;5080328;28;20028;-80
2022/08/09 00:40:54;;;;;;;0.77;0.50;;;;;;;32.80;23.81;98896.16;5085368;28;20032;-80
2022/08/09 00:43:23;;;;;;;0.50;0.50;;;;;;;32.84;23.57;98893.94;5082971;28;20116;-80
2022/08/09 00:45:49;;;;;;;1.67;0.52;;;;;;;32.72;23.57;98900.59;5080242;28;20094;-80
2022/08/09 00:48:15;;;;;;;1.60;0.55;;;;;;;32.65;23.58;98900.91;5082363;28;20032;-80
2022/08/09 00:50:42;;;;;;;0.88;0.50;;;;;;;32.47;24.07;98895.16;5082615;28;20110;-80
2022/08/09 00:53:09;;;;;;;0.70;0.60;;;;;;;32.32;24.59;98897.84;5084194;28;20082;-80
2022/08/09 00:55:35;;;;;;;1.05;0.90;;;;;;;32.39;24.25;98905.28;5083059;28;20036;-80
2022/08/09 00:58:01;;;;;;;1.23;0.98;;;;;;;32.30;24.50;98908.88;5087963;28;20075;-79
2022/08/09 01:00:28;;;;;;;3.47;0.55;;;;;;;32.18;24.87;98914.69;5089353;28;20392;-80
2022/08/09 01:03:03;;;;;;;1.20;0.63;;;;;;;32.06;24.20;98911.53;5086490;28;20028;-80
2022/08/09 01:05:49;;;;;;;0.57;0.57;;;;;;;32.26;23.83;98916.75;5083533;28;20450;-80
2022/08/09 01:08:34;;;;;;;1.33;0.68;;;;;;;32.03;24.79;98909.59;5086920;28;20032;-79
2022/08/09 01:11:11;;;;;;;1.15;0.60;;;;;;;32.13;25.00;98903.94;5087904;28;21715;-79
2022/08/09 01:14:08;;;;;;;1.27;0.60;;;;;;;32.12;24.59;98908.03;5087003;28;20539;-79
2022/08/09 01:16:45;;;;;;;1.15;0.60;;;;;;;32.13;24.08;98901.91;5086666;28;20060;-79
2022/08/09 01:19:34;;;;;;;4.20;0.55;;;;;;;32.25;23.91;98912.34;5088544;28;20399;-79
2022/08/09 01:22:37;;;;;;;0.57;0.50;;;;;;;31.78;24.36;98912.66;5090167;28;20110;-79
2022/08/09 01:25:31;;;;;;;1.38;0.60;;;;;;;31.27;25.17;98917.09;5086908;28;20053;-79
2022/08/09 01:28:00;;;;;;;0.80;0.75;;;;;;;31.11;25.65;98920.13;5084179;28;20499;-79
2022/08/09 01:30:28;;;;;;;0.57;0.50;;;;;;;31.30;25.60;98921.81;5087703;28;20043;-80
2022/08/09 01:32:58;;;;;;;2.22;0.70;;;;;;;31.75;24.77;98913.56;5085253;28;20119;-79
2022/08/09 01:35:39;;;;;;;2.08;0.70;;;;;;;32.14;24.13;98911.22;5082156;28;20032;-79
2022/08/09 01:38:10;;;;;;;2.05;0.60;;;;;;;31.93;24.32;98907.16;5083532;28;20758;-79
2022/08/09 01:40:43;;;;;;;1.15;0.70;;;;;;;31.61;24.40;98911.31;5086748;28;20035;-79
2022/08/09 01:43:10;;;;;;;1.15;0.63;;;;;;;31.64;24.53;98920.94;5085880;28;20472;-79
2022/08/09 01:45:39;;;;;;;1.25;0.60;;;;;;;31.57;24.86;98912.69;5085488;28;20081;-80
2022/08/09 01:48:07;;;;;;;1.00;0.70;;;;;;;31.82;24.35;98923.84;5091615;28;20120;-79
2022/08/09 01:50:34;;;;;;;2.47;0.93;;;;;;;32.05;23.64;98911.97;5086818;28;20047;-80
2022/08/09 01:53:01;;;;;;;0.98;0.50;;;;;;;31.96;24.00;98914.75;5082985;28;20105;-79
2022/08/09 01:55:31;;;;;;;0.52;0.50;;;;;;;31.94;24.53;98912.41;5085154;28;20039;-79
2022/08/09 01:58:00;;;;;;;1.15;1.00;;;;;;;31.94;24.00;98915.25;5089224;28;20038;-79
2022/08/09 02:00:28;;;;;;;2.67;0.63;;;;;;;32.02;24.04;98916.53;5085051;28;20039;-80
2022/08/09 02:02:56;;;;;;;1.02;0.93;;;;;;;31.98;23.86;98920.78;5085241;28;20043;-79
2022/08/09 02:05:23;;;;;;;0.70;0.70;;;;;;;32.01;24.04;98928.38;5083093;28;20035;-79
2022/08/09 02:07:54;;;;;;;0.77;0.70;;;;;;;31.79;23.82;98933.31;5086112;28;20032;-79
2022/08/09 02:10:24;;;;;;;0.85;0.63;;;;;;;31.33;24.63;98932.25;5084592;28;20119;-79
2022/08/09 02:12:54;;;;;;;1.10;0.52;;;;;;;30.48;25.62;98931.72;5087124;28;20089;-79
2022/08/09 02:15:22;;;;;;;0.77;0.70;;;;;;;30.55;25.81;98940.72;5082788;28;20047;-79
2022/08/09 02:17:52;;;;;;;0.80;0.50;;;;;;;30.88;24.92;98934.75;5084152;28;20037;-79
2022/08/09 02:20:19;;;;;;;4.33;0.50;;;;;;;30.71;25.48;98934.13;5087405;28;20044;-80
2022/08/09 02:22:55;;;;;;;1.05;0.57;;;;;;;30.92;25.44;98932.59;5086768;28;20557;-79
2022/08/09 02:25:29;;;;;;;0.77;0.65;;;;;;;31.14;24.79;98930.53;5085850;28;20039;-79
2022/08/09 02:28:08;;;;;;;2.42;0.80;;;;;;;31.44;24.25;98926.97;5084962;28;20058;-79
2022/08/09 02:30:44;;;;;;;0.65;0.57;;;;;;;31.52;24.32;98928.28;5084533;28;20071;-79
2022/08/09 02:33:17;;;;;;;0.85;0.80;;;;;;;31.27;24.52;98926.38;5083257;28;20040;-79
2022/08/09 02:35:46;;;;;;;0.70;0.60;;;;;;;31.21;24.50;98936.75;5084390;28;20083;-79
2022/08/09 02:38:18;;;;;;;0.73;0.73;;;;;;;31.36;24.49;98932.13;5082431;28;20149;-79
2022/08/09 02:40:45;;;;;;;2.90;0.70;;;;;;;31.52;24.16;98928.28;5084689;28;20118;-79
2022/08/09 02:43:12;;;;;;;1.27;0.73;;;;;;;31.38;24.63;98923.94;5081661;28;20066;-79
2022/08/09 02:45:42;;;;;;;3.47;0.70;;;;;;;31.12;24.77;98933.03;5080453;28;20830;-79
2022/08/09 02:48:13;;;;;;;2.28;0.70;;;;;;;31.15;24.98;98930.09;5084128;28;20024;-79
2022/08/09 02:50:46;;;;;;;;;;;;;;;30.96;25.32;98942.56;5084037;28;20097;-79
2022/08/09 02:53:26;;;;;;;0.80;0.77;;;;;;;31.40;24.65;98934.81;5083954;28;19969;-79
2022/08/09 02:55:56;;;;;;;2.08;0.55;;;;;;;31.62;24.47;98937.66;5084353;28;20032;-79
2022/08/09 02:58:26;;;;;;;1.45;0.70;;;;;;;31.70;24.17;98933.25;5086264;28;20099;-79
2022/08/09 03:00:54;;;;;;;1.38;0.80;;;;;;;31.74;24.42;98934.69;5082893;28;20120;-79
2022/08/09 03:03:22;;;;;;;1.88;0.70;;;;;;;31.78;24.29;98940.25;5086903;28;20036;-79
2022/08/09 03:05:51;;;;;;;0.90;0.70;;;;;;;31.86;24.41;98935.84;5082903;28;20082;-79
2022/08/09 03:08:19;;;;;;;1.85;0.80;;;;;;;31.68;24.38;98938.63;5082046;28;20015;-79
2022/08/09 03:10:46;;;;;;;1.00;0.50;;;;;;;31.77;24.56;98938.66;5083308;28;20115;-79
2022/08/09 03:13:15;;;;;;;2.13;0.50;;;;;;;32.07;24.06;98950.03;5084439;28;20051;-79
2022/08/09 03:15:42;;;;;;;2.80;0.80;;;;;;;32.25;23.75;98942.81;5080243;28;20089;-79
2022/08/09 03:18:10;;;;;;;1.40;0.73;;;;;;;32.38;23.84;98949.97;5087388;28;20028;-79
2022/08/09 03:20:38;;;;;;;1.05;0.68;;;;;;;32.53;23.46;98945.28;5086698;28;20044;-79
2022/08/09 03:23:05;;;;;;;1.50;0.57;;;;;;;32.63;23.77;98954.59;5086863;28;20765;-79
2022/08/09 03:25:32;;;;;;;1.55;0.60;;;;;;;32.55;23.55;98947.66;5082040;28;20510;-79
2022/08/09 03:28:00;;;;;;;1.88;0.70;;;;;;;32.66;23.53;98947.97;5085616;28;20032;-79
2022/08/09 03:30:27;;;;;;;0.70;0.50;;;;;;;32.32;23.54;98948.22;5086987;28;20028;-79
2022/08/09 03:32:55;;;;;;;1.00;0.60;;;;;;;31.82;24.48;98947.38;5085259;28;20503;-79
2022/08/09 03:35:22;;;;;;;0.82;0.68;;;;;;;31.45;24.99;98951.28;5085364;28;20049;-79
2022/08/09 03:37:48;;;;;;;0.70;0.50;;;;;;;31.21;25.29;98945.25;5085180;28;20086;-79
2022/08/09 03:40:15;;;;;;;0.85;0.52;;;;;;;31.17;25.17;98949.47;5078393;28;20068;-79
2022/08/09 03:42:41;;;;;;;0.50;0.50;;;;;;;31.38;24.97;98940.16;5080411;28;21679;-79
2022/08/09 03:45:08;;;;;;;1.50;0.80;;;;;;;31.76;24.59;98946.41;5083568;28;20027;-79
2022/08/09 03:47:34;;;;;;;1.10;0.45;;;;;;;31.91;24.54;98944.56;5082169;28;20470;-79
2022/08/09 03:50:04;;;;;;;0.43;0.43;;;;;;;31.81;24.50;98945.78;5084990;28;20032;-79
2022/08/09 03:52:31;;;;;;;0.80;0.60;;;;;;;31.57;24.80;98953.25;5086091;28;20139;-79
2022/08/09 03:55:01;;;;;;;1.65;0.57;;;;;;;31.39;24.97;98953.88;5083703;28;20111;-79
2022/08/09 03:57:28;;;;;;;2.38;0.60;;;;;;;31.43;25.45;98962.31;5078106;28;20031;-79
2022/08/09 03:59:54;;;;;;;2.00;1.25;;;;;;;31.29;25.77;98948.63;5086413;28;20024;-79
2022/08/09 04:02:21;;;;;;;0.90;0.70;;;;;;;31.58;25.63;98949.13;5081366;28;20892;-78
2022/08/09 04:04:48;;;;;;;1.23;0.63;;;;;;;32.08;25.33;98945.94;5083198;28;20067;-79
2022/08/09 04:07:15;;;;;;;1.25;0.68;;;;;;;32.38;25.21;98944.28;5091379;28;20073;-79
2022/08/09 04:09:41;;;;;;;1.73;0.70;;;;;;;32.31;25.01;98938.09;5083748;28;20123;-79
2022/08/09 04:12:13;;;;;;;0.75;0.68;;;;;;;32.25;26.02;98945.66;5089260;28;20502;-79
2022/08/09 04:14:40;;;;;;;2.05;1.08;;;;;;;32.50;25.74;98946.22;5089825;28;20522;-78
2022/08/09 04:17:07;;;;;;;1.10;0.80;;;;;;;32.81;25.32;98936.78;5090466;28;20025;-79
2022/08/09 04:19:33;;;;;;;0.98;0.93;;;;;;;33.00;25.52;98950.50;5084210;28;20032;-79
2022/08/09 04:22:00;;;;;;;1.80;1.10;;;;;;;33.01;25.60;98948.47;5083633;28;20043;-79
2022/08/09 04:24:26;;;;;;;1.25;0.82;;;;;;;33.05;25.24;98952.00;5083681;28;20035;-80
2022/08/09 04:26:53;;;;;;;1.92;1.02;;;;;;;33.06;25.16;98948.66;5083930;28;20032;-79
2022/08/09 04:29:19;;;;;;;1.63;0.90;;;;;;;32.94;25.37;98954.47;5077000;28;20032;-79
2022/08/09 04:31:45;;;;;;;1.95;0.85;;;;;;;32.96;25.49;98958.41;5080587;28;20036;-79
2022/08/09 04:34:11;;;;;;;0.80;0.80;;;;;;;33.02;25.52;98950.88;5082383;28;20036;-79
2022/08/09 04:36:38;;;;;;;3.60;0.80;;;;;;;33.01;25.54;98954.16;5083995;28;20047;-80
2022/08/09 04:39:08;;;;;;;1.85;1.02;;;;;;;33.10;25.88;98957.81;5084655;28;20037;-79
2022/08/09 04:41:34;;;;;;;1.42;0.90;;;;;;;33.21;25.11;98963.03;5079227;28;20601;-79
2022/08/09 04:44:02;;;;;;;1.63;1.00;;;;;;;33.08;25.13;98963.19;5078843;28;20393;-79
2022/08/09 04:46:29;;;;;;;1.85;1.15;;;;;;;32.85;25.78;98960.16;5080076;28;20032;-79
2022/08/09 04:48:55;;;;;;;1.75;1.08;;;;;;;32.81;26.08;98957.50;5082381;28;20028;-79
2022/08/09 04:51:21;;;;;;;1.35;1.25;;;;;;;32.68;26.10;98962.50;5085600;28;20111;-79
2022/08/09 04:53:47;;;;;;;1.27;1.02;;;;;;;32.43;26.21;98959.91;5082312;28;20392;-79
2022/08/09 04:56:13;;;;;;;0.75;0.70;;;;;;;32.38;26.75;98961.34;5082925;28;20031;-79
2022/08/09 04:58:39;;;;;;;0.80;0.80;;;;;;;32.34;26.04;98960.69;5086848;28;20024;-79
2022/08/09 05:01:06;;;;;;;1.15;0.80;;;;;;;32.43;26.46;98957.06;5087002;28;20023;-79
2022/08/09 05:03:32;;;;;;;1.23;0.90;;;;;;;32.65;26.20;98957.78;5085299;28;20035;-78
2022/08/09 05:05:58;;;;;;;1.17;1.10;;;;;;;32.75;26.49;98962.19;5081956;28;20610;-79
2022/08/09 05:08:24;;;;;;;2.25;1.17;;;;;;;32.74;26.16;98961.41;5082726;28;20066;-79
2022/08/09 05:10:50;;;;;;;1.52;0.98;;;;;;;32.93;26.25;98956.50;5082106;28;20033;-79
2022/08/09 05:13:16;;;;;;;0.80;0.80;;;;;;;33.11;25.77;98959.41;5080068;28;20029;-79
2022/08/09 05:15:42;;;;;;;2.67;0.88;;;;;;;33.11;25.79;98967.94;5079065;28;20024;-78
2022/08/09 05:18:08;;;;;;;2.33;1.00;;;;;;;33.39;25.75;98969.50;5083140;28;20047;-78
2022/08/09 05:20:34;;;;;;;0.70;0.70;;;;;;;33.84;24.75;98967.84;5082621;28;20111;-79
2022/08/09 05:23:00;;;;;;;0.93;0.90;;;;;;;33.96;25.22;98970.47;5082246;28;20087;-78
2022/08/09 05:25:26;;;;;;;0.80;0.80;;;;;;;33.94;24.84;98966.50;5082969;28;20032;-79
2022/08/09 05:27:52;;;;;;;2.30;1.00;;;;;;;34.16;24.86;98974.84;5098001;28;20421;-79
2022/08/09 05:30:18;;;;;;;1.45;1.10;;;;;;;34.48;24.49;98979.75;5084132;28;20113;-79
2022/08/09 05:32:46;;;;;;;6.07;5.47;;;;;;;34.67;23.99;98979.19;5080902;28;20044;-79
2022/08/09 05:35:12;;;;;;;3.65;3.33;;;;;;;34.80;23.57;98975.31;5084380;28;20407;-79
2022/08/09 05:37:38;;;;;;;8.27;2.28;;;;;;;34.89;23.80;98976.03;5082098;28;20035;-79
2022/08/09 05:40:06;;;;;;;3.25;1.77;;;;;;;34.97;23.36;98973.56;5083996;28;20052;-79
2022/08/09 05:42:32;;;;;;;5.60;1.85;;;;;;;34.99;23.49;98977.50;5087956;28;20030;-78
2022/08/09 05:44:59;;;;;;;5.22;1.77;;;;;;;35.06;22.94;98973.50;5082663;28;20075;-79
2022/08/09 05:47:26;;;;;;;3.33;1.63;;;;;;;34.80;23.46;98983.84;5083562;28;20499;-79
2022/08/09 05:49:54;;;;;;;9.70;1.65;;;;;;;34.32;24.25;98969.53;5087161;28;20032;-79
2022/08/09 05:52:21;;;;;;;5.38;2.78;;;;;;;34.03;24.63;98975.06;5081987;28;20036;-79
2022/08/09 05:54:47;;;;;;;2.88;1.55;;;;;;;33.77;25.02;98976.72;5085013;28;20037;-79
2022/08/09 05:57:13;;;;;;;3.30;1.45;;;;;;;33.72;25.19;98978.16;5088671;28;20059;-79
2022/08/09 05:59:39;;;;;;;2.70;1.30;;;;;;;33.88;24.44;98980.63;5085108;28;20082;-79
2022/08/09 06:02:05;;;;;;;1.52;1.20;;;;;;;34.14;24.71;98985.94;5087710;28;20476;-79
2022/08/09 06:04:31;;;;;;;2.25;1.70;;;;;;;34.11;24.72;98976.31;5085900;28;20100;-79
2022/08/09 06:06:57;;;;;;;4.68;1.45;;;;;;;33.84;23.75;98982.09;5083702;28;20028;-79
2022/08/09 06:09:24;;;;;;;1.77;1.58;;;;;;;33.97;24.05;98974.09;5091030;28;20069;-79
2022/08/09 06:11:50;;;;;;;2.67;1.10;;;;;;;33.77;24.52;98986.03;5080508;28;20503;-79
2022/08/09 06:14:19;;;;;;;1.67;0.90;;;;;;;34.08;24.50;98982.94;5083362;28;20032;-79
2022/08/09 06:16:45;;;;;;;1.33;0.90;;;;;;;34.25;24.34;98980.50;5080846;28;20400;-79
2022/08/09 06:19:13;;;;;;;1.23;0.95;;;;;;;34.30;23.08;98979.84;5086990;28;20036;-80
2022/08/09 06:21:40;;;;;;;1.75;1.10;;;;;;;33.77;23.72;98982.41;5083238;28;20048;-79
2022/08/09 06:24:06;;;;;;;1.35;0.70;;;;;;;33.98;24.26;98972.84;5081916;28;20066;-79
2022/08/09 06:26:37;;;;;;;1.65;0.90;;;;;;;33.34;24.16;98970.13;5082967;28;20093;-78
2022/08/09 06:29:03;;;;;;;1.42;0.90;;;;;;;34.12;24.52;98975.03;5082887;28;20109;-79
2022/08/09 06:31:29;;;;;;;3.53;1.00;;;;;;;33.14;24.43;98969.06;5083962;28;20078;-79
2022/08/09 06:33:55;;;;;;;0.90;0.60;;;;;;;33.35;24.34;98976.63;5082721;28;20043;-79
2022/08/09 06:36:21;;;;;;;2.00;1.00;;;;;;;34.15;24.10;98964.69;5082917;28;20024;-79
2022/08/09 06:38:48;;;;;;;2.65;1.15;;;;;;;34.77;23.53;98970.56;5082008;28;20055;-80
2022/08/09 06:41:15;;;;;;;1.33;0.95;;;;;;;35.56;22.39;98983.06;5082092;28;20537;-79
2022/08/09 06:43:45;;;;;;;2.05;0.80;;;;;;;36.05;22.10;98978.25;5083909;28;20040;-80
2022/08/09 06:46:11;;;;;;;2.05;0.90;;;;;;;36.23;21.56;98977.22;5070773;28;20046;-79
2022/08/09 06:48:39;;;;;;;0.90;0.80;;;;;;;36.48;22.32;98970.09;5072545;28;20107;-79
2022/08/09 06:51:05;;;;;;;1.48;0.70;;;;;;;36.84;20.69;98974.47;5083654;28;20044;-80
2022/08/09 06:53:32;;;;;;;1.42;0.98;;;;;;;37.02;20.23;98974.19;5079648;28;20147;-80
2022/08/09 06:55:59;;;;;;;1.15;0.63;;;;;;;36.86;21.47;98969.00;5079551;28;20036;-79
2022/08/09 06:58:25;;;;;;;2.50;0.70;;;;;;;37.16;21.51;98979.84;5082999;28;20039;-79
2022/08/09 07:00:51;;;;;;;1.25;0.80;;;;;;;37.46;20.98;98985.41;5083324;28;20032;-79
2022/08/09 07:03:17;;;;;;;2.33;0.50;;;;;;;37.62;20.98;98981.91;5086272;28;20040;-79
2022/08/09 07:05:43;;;;;;;1.08;0.98;;;;;;;37.68;20.21;98979.88;5080146;28;20035;-80
2022/08/09 07:08:09;;;;;;;1.25;0.60;;;;;;;37.20;20.67;98983.25;5083938;28;20039;-79
2022/08/09 07:10:35;;;;;;;1.98;1.10;;;;;;;36.68;21.50;98984.41;5081786;28;20036;-79
2022/08/09 07:13:01;;;;;;;2.95;0.90;;;;;;;33.66;23.65;98990.66;5069811;28;20063;-79
2022/08/09 07:15:28;;;;;;;1.63;0.55;;;;;;;33.75;24.96;98988.56;5083025;28;20494;-79
2022/08/09 07:17:54;;;;;;;0.80;0.60;;;;;;;32.46;25.32;98987.41;5081179;28;20067;-79
2022/08/09 07:20:20;;;;;;;2.75;0.70;;;;;;;31.82;25.70;98995.66;5081745;28;20032;-79
2022/08/09 07:22:46;;;;;;;1.10;0.70;;;;;;;31.36;25.72;98994.56;5082649;28;20036;-79
2022/08/09 07:25:12;;;;;;;1.92;0.70;;;;;;;29.60;27.52;99003.25;5077478;28;20479;-78
2022/08/09 07:27:40;;;;;;;1.58;0.68;;;;;;;30.18;27.10;98992.56;5079141;28;20023;-79
2022/08/09 07:30:06;;;;;;;0.90;0.60;;;;;;;29.95;28.06;99002.22;5076529;28;20062;-79
2022/08/09 07:32:33;;;;;;;1.55;0.70;;;;;;;30.44;27.00;99004.69;5082074;28;20024;-79
2022/08/09 07:35:00;;;;;;;1.50;0.68;;;;;;;31.97;23.90;99010.91;5077974;28;20032;-79
2022/08/09 07:37:26;;;;;;;3.50;0.60;;;;;;;31.41;25.62;99002.47;5085249;28;20488;-79
2022/08/09 07:39:52;;;;;;;1.67;0.55;;;;;;;31.50;25.43;99007.47;5078408;28;20032;-79
2022/08/09 07:42:18;;;;;;;1.42;0.60;;;;;;;30.73;26.85;99011.00;5080449;28;20086;-79
2022/08/09 07:44:44;;;;;;;1.75;0.52;;;;;;;31.05;25.46;99004.22;5080359;28;20453;-79
2022/08/09 07:47:10;;;;;;;1.63;1.00;;;;;;;31.40;26.37;99002.94;5082585;28;20130;-79
2022/08/09 07:49:36;;;;;;;2.08;0.63;;;;;;;31.64;26.02;99014.66;5084412;28;20071;-79
2022/08/09 07:52:02;;;;;;;0.65;0.52;;;;;;;31.87;26.23;99011.31;5087173;28;20082;-79
2022/08/09 07:54:30;;;;;;;3.00;0.60;;;;;;;31.70;26.21;99010.72;5079472;28;20032;-79
2022/08/09 07:56:57;;;;;;;1.77;0.70;;;;;;;31.22;26.47;99009.28;5082606;28;20542;-79
2022/08/09 07:59:23;;;;;;;2.10;0.70;;;;;;;30.60;27.59;99015.91;5084391;28;21909;-79
2022/08/09 08:01:49;;;;;;;1.25;0.60;;;;;;;30.84;27.33;99019.94;5082959;28;20052;-79
2022/08/09 08:04:15;;;;;;;1.27;0.63;;;;;;;30.41;27.44;99020.56;5080326;28;20044;-79
2022/08/09 08:06:41;;;;;;;1.00;0.60;;;;;;;30.20;27.51;99021.22;5081452;28;20066;-79
2022/08/09 08:09:07;;;;;;;1.58;0.60;;;;;;;30.54;27.77;99017.72;5081294;28;20058;-81
2022/08/09 08:11:33;;;;;;;0.85;0.60;;;;;;;30.20;26.88;99021.22;5082304;28;20032;-79
2022/08/09 08:13:59;;;;;;;0.57;0.50;;;;;;;29.98;28.02;99015.47;5066273;28;20572;-79
2022/08/09 08:16:26;;;;;;;1.77;0.50;;;;;;;29.25;27.58;99022.06;5077150;28;20040;-79
2022/08/09 08:18:52;;;;;;;0.88;0.40;;;;;;;30.45;26.58;99020.47;5079244;28;20016;-79
2022/08/09 08:21:18;;;;;;;9.05;0.80;;;;;;;30.58;25.96;99019.19;5078888;28;20496;-80
2022/08/09 08:23:45;;;;;;;0.52;0.52;;;;;;;31.23;25.56;99024.25;5077970;28;20059;-79
2022/08/09 08:26:11;;;;;;;2.53;0.70;;;;;;;29.39;27.00;99029.34;5078373;28;20036;-79
2022/08/09 08:28:37;;;;;;;1.13;0.60;;;;;;;29.07;27.32;99024.56;5083073;28;20020;-79
2022/08/09 08:31:03;;;;;;;4.03;0.63;;;;;;;29.71;27.45;99020.72;5080250;28;20032;-79
2022/08/09 08:33:29;;;;;;;2.20;0.63;;;;;;;30.69;26.47;99028.13;5077867;28;20032;-79
2022/08/09 08:35:55;;;;;;;1.70;0.82;;;;;;;30.17;25.42;99029.88;5080574;28;20039;-79
2022/08/09 08:38:21;;;;;;;2.95;0.50;;;;;;;29.80;26.64;99034.25;5081220;28;20032;-79
2022/08/09 08:40:49;;;;;;;3.08;0.60;;;;;;;29.64;27.07;99029.41;5077225;28;20036;-79
2022/08/09 08:43:16;;;;;;;1.92;0.70;;;;;;;30.59;26.54;99022.84;5075927;28;20053;-79
2022/08/09 08:45:49;;;;;;;2.05;0.50;;;;;;;30.19;25.57;99024.53;5079307;28;20032;-79
2022/08/09 08:48:17;;;;;;;1.30;0.47;;;;;;;30.32;25.38;99028.16;5075779;28;20042;-79
2022/08/09 08:50:45;;;;;;;1.40;0.70;;;;;;;30.76;25.43;99036.41;5079521;28;20051;-80
2022/08/09 08:53:13;;;;;;;2.08;0.60;;;;;;;30.54;24.58;99035.53;5081258;28;20066;-80
2022/08/09 08:55:43;;;;;;;1.23;0.60;;;;;;;31.18;24.20;99030.53;5079240;28;20037;-80
2022/08/09 08:58:12;;;;;;;1.63;0.60;;;;;;;31.04;24.96;99031.03;5081163;28;20040;-80
2022/08/09 09:00:41;;;;;;;2.58;0.50;;;;;;;30.73;24.48;99031.66;5077703;28;20032;-80
2022/08/09 09:03:09;;;;;;;1.13;0.70;;;;;;;30.04;25.49;99024.19;5079295;28;20055;-80
2022/08/09 09:05:36;;;;;;;1.25;0.50;;;;;;;30.42;25.76;99022.19;5081557;28;20032;-79
2022/08/09 09:08:03;;;;;;;6.35;0.70;;;;;;;32.05;25.10;99020.75;5089414;28;20090;-80
2022/08/09 09:10:30;;;;;;;3.00;0.55;;;;;;;32.26;25.11;99027.63;5080450;28;20097;-80
2022/08/09 09:12:57;;;;;;;1.77;0.50;;;;;;;31.04;25.89;99033.88;5077198;28;20047;-81
2022/08/09 09:15:23;;;;;;;0.80;0.43;;;;;;;30.22;25.40;99017.97;5079688;28;20052;-79
2022/08/09 09:17:49;;;;;;;1.95;0.70;;;;;;;30.64;25.62;99022.25;5087730;28;20043;-80
2022/08/09 09:20:16;;;;;;;1.98;0.60;;;;;;;30.53;25.49;99030.31;5083058;28;20035;-79
2022/08/09 09:22:59;;;;;;;3.30;0.60;;;;;;;29.97;25.69;99042.19;5084558;28;20044;-79
2022/08/09 09:25:35;;;;;;;2.65;0.77;;;;;;;30.75;24.87;99043.34;5081393;28;20067;-79
2022/08/09 09:28:03;;;;;;;1.95;0.60;;;;;;;30.66;25.22;99033.94;5074567;28;20047;-79
2022/08/09 09:30:30;;;;;;;3.47;0.57;;;;;;;30.82;27.09;99041.50;5075339;28;20504;-79
2022/08/09 09:33:03;;;;;;;3.55;0.60;;;;;;;31.38;25.66;99037.47;5080016;28;20055;-80
2022/08/09 09:35:29;;;;;;;2.53;0.60;;;;;;;32.57;24.44;99036.13;5077415;28;20664;-79
2022/08/09 09:37:58;;;;;;;1.38;0.60;;;;;;;32.53;23.55;99033.44;5078321;28;20507;-79
2022/08/09 09:40:44;;;;;;;1.52;0.57;;;;;;;33.78;22.63;99032.41;5077197;28;20081;-79
2022/08/09 09:43:18;;;;;;;3.53;0.73;;;;;;;33.58;22.65;99032.94;5078303;28;20124;-79
2022/08/09 09:45:52;;;;;;;1.63;0.60;;;;;;;34.77;22.64;99027.63;5079153;28;20090;-79
2022/08/09 09:48:20;;;;;;;1.27;0.60;;;;;;;33.15;22.65;99031.19;5075869;28;20499;-79
2022/08/09 09:50:49;;;;;;;1.02;0.60;;;;;;;31.52;25.26;99041.06;5078192;28;20040;-79
2022/08/09 09:53:19;;;;;;;1.17;0.60;;;;;;;30.91;25.88;99030.25;5079276;28;20096;-80
2022/08/09 09:55:52;;;;;;;1.80;0.80;;;;;;;30.62;26.53;99038.94;5078909;28;20039;-79
2022/08/09 09:58:19;;;;;;;1.73;0.90;;;;;;;29.93;27.41;99035.06;5079159;28;20523;-79
2022/08/09 10:00:50;;;;;;;1.27;0.90;;;;;;;29.61;27.80;99040.84;5075849;28;20065;-79
2022/08/09 10:03:17;;;;;;;1.08;0.75;;;;;;;30.80;26.34;99039.13;5074056;28;20039;-80
2022/08/09 10:05:59;;;;;;;1.55;0.70;;;;;;;31.92;24.51;99041.94;5076529;28;20055;-81
2022/08/09 10:08:25;;;;;;;1.63;0.60;;;;;;;32.48;24.24;99033.22;5079213;28;20391;-81
2022/08/09 10:10:52;;;;;;;1.33;0.60;;;;;;;32.46;24.51;99033.72;5073207;28;20161;-81
2022/08/09 10:13:18;;;;;;;1.17;0.68;;;;;;;31.49;25.14;99039.94;5076258;28;20059;-81
2022/08/09 10:15:51;;;;;;;0.88;0.57;;;;;;;32.92;24.07;99028.94;5080695;28;20045;-82
2022/08/09 10:18:18;;;;;;;1.30;0.68;;;;;;;32.99;24.15;99034.31;5081347;28;20066;-81
2022/08/09 10:20:44;;;;;;;1.25;0.60;;;;;;;32.47;24.25;99035.28;5082521;28;20641;-82
2022/08/09 10:23:18;;;;;;;1.95;0.60;;;;;;;32.48;23.74;99031.19;5082510;28;20086;-80
2022/08/09 10:25:48;;;;;;;1.50;0.60;;;;;;;31.46;24.34;99040.06;5088324;28;20036;-81
2022/08/09 10:28:15;;;;;;;3.67;0.65;;;;;;;31.83;25.48;99028.50;5081989;28;20036;-81
2022/08/09 10:30:42;;;;;;;1.70;0.70;;;;;;;32.93;23.75;99019.13;5081565;28;20039;-81
2022/08/09 10:33:08;;;;;;;1.10;0.82;;;;;;;32.78;24.04;99017.38;5082197;28;20116;-81
2022/08/09 10:35:35;;;;;;;1.38;0.57;;;;;;;32.15;23.90;99024.41;5081957;28;20169;-80
2022/08/09 10:38:02;;;;;;;1.05;0.70;;;;;;;32.27;23.27;99015.00;5088348;28;20040;-80
2022/08/09 10:40:28;;;;;;;0.93;0.70;;;;;;;33.65;22.82;99009.84;5089124;28;20139;-80
2022/08/09 10:42:55;;;;;;;1.23;0.80;;;;;;;33.67;22.74;99007.28;5085967;28;20042;-80
2022/08/09 10:45:22;;;;;;;2.83;0.75;;;;;;;32.34;25.05;99013.91;5087467;28;20055;-80
2022/08/09 10:48:09;;;;;;;0.82;0.70;;;;;;;33.32;22.78;99025.97;5087951;28;20032;-80
2022/08/09 10:51:08;;;;;;;0.80;0.80;;;;;;;33.47;23.07;99009.03;5083075;28;20093;-80
2022/08/09 10:53:50;;;;;;;0.85;0.60;;;;;;;33.45;22.75;99009.50;5084091;28;20822;-80
2022/08/09 10:56:25;;;;;;;0.90;0.70;;;;;;;35.08;22.29;99002.38;5082300;28;20491;-80
2022/08/09 10:58:53;;;;;;;3.42;0.70;;;;;;;33.86;22.56;99002.34;5082662;28;20040;-80
2022/08/09 11:01:31;;;;;;;0.90;0.73;;;;;;;34.94;22.14;99009.56;5081766;28;20032;-81
2022/08/09 11:04:12;;;;;;;0.55;0.50;;;;;;;34.79;21.00;98997.34;5080836;28;20069;-80
2022/08/09 11:06:43;;;;;;;1.50;0.80;;;;;;;34.14;22.86;99003.06;5080594;28;20116;-80
2022/08/09 11:09:12;;;;;;;0.95;0.60;;;;;;;34.32;22.68;99005.81;5080098;28;20547;-78
2022/08/09 11:11:54;;;;;;;0.60;0.55;;;;;;;34.82;21.57;98998.44;5080898;28;20063;-78
2022/08/09 11:14:31;;;;;;;1.00;0.60;;;;;;;35.02;21.20;98999.41;5080717;28;20047;-79
2022/08/09 11:16:57;;;;;;;1.60;0.60;;;;;;;34.47;21.63;99001.00;5083944;28;20024;-78
2022/08/09 11:20:00;;;;;;;1.05;0.50;;;;;;;34.68;21.68;99009.28;5085933;28;20028;-78
2022/08/09 11:22:44;;;;;;;0.82;0.60;;;;;;;33.95;22.53;99008.00;5087292;28;20048;-78
2022/08/09 11:25:11;;;;;;;1.42;0.73;;;;;;;33.66;23.10;99007.75;5089194;28;20042;-78
2022/08/09 11:27:45;;;;;;;1.25;0.60;;;;;;;32.99;23.46;99005.84;5085552;28;20028;-78
2022/08/09 11:30:15;;;;;;;1.35;0.70;;;;;;;32.99;23.62;99003.00;5082293;28;20462;-78
2022/08/09 11:32:50;;;;;;;2.33;0.60;;;;;;;33.15;24.41;99005.56;5102051;28;20556;-79
2022/08/09 11:35:39;;;;;;;3.20;0.60;;;;;;;33.65;25.44;98989.09;5083901;28;20081;-78
2022/08/09 11:38:18;;;;;;;2.13;0.80;;;;;;;33.79;22.64;98999.81;5081673;28;20032;-78
2022/08/09 11:40:45;;;;;;;1.13;0.80;;;;;;;34.54;22.31;98992.88;5080847;28;20391;-78
2022/08/09 11:43:51;;;;;;;1.45;1.30;;;;;;;35.83;22.10;98991.34;5083066;28;20120;-79